Time;durP1;ratioP1;P1;durP2;ratioP2;P2;SDS_P1;SDS_P2;PMS_P1;PMS_P2;Temp;Humidity;BMP_temperature;BMP_pressure;BME280_temperature;BME280_humidity;BME280_pressure;Samples;Min_cycle;Max_cycle;Signal;HPM_P1;HPM_P2
2022/08/20 00:00:54;;;;;;;;;;;;;;;20.63;73.15;99010.87;1670753;86;21140;-72
2022/08/20 00:03:28;;;;;;;;;;;;;;;20.67;73.05;99018.79;1670561;86;20164;-70
2022/08/20 00:06:00;;;;;;;;;;;;;;;20.71;72.98;99013.16;1673524;84;20196;-71
2022/08/20 00:08:27;;;;;;;;;;;;;;;20.77;72.84;99010.02;1670693;86;20102;-71
2022/08/20 00:10:53;;;;;;;;;;;;;;;20.82;72.67;98998.75;1652891;84;20432;-71
2022/08/20 00:13:23;;;;;;;;;;;;;;;20.88;72.64;98999.64;1694277;84;21171;-71
2022/08/20 00:15:50;;;;;;;;;;;;;;;20.96;72.42;99000.58;1672476;84;20125;-69
2022/08/20 00:18:16;;;;;;;;;;;;;;;20.98;72.30;98993.55;1690977;84;20127;-69
2022/08/20 00:20:44;;;;;;;;;;;;;;;21.01;72.05;98991.19;1695111;84;20186;-70
2022/08/20 00:23:11;;;;;;;;;;;;;;;20.99;71.85;98987.09;1694532;84;20143;-69
2022/08/20 00:25:38;;;;;;;;;;;;;;;20.98;71.94;98988.15;1695745;84;21168;-72
2022/08/20 00:28:05;;;;;;;;;;;;;;;20.98;71.89;98984.09;1695769;84;20124;-70
2022/08/20 00:30:33;;;;;;;;;;;;;;;20.92;71.81;98989.42;1695199;84;20143;-69
2022/08/20 00:33:05;;;;;;;;;;;;;;;20.84;71.91;98991.20;1686314;84;20111;-70
2022/08/20 00:35:33;;;;;;;;;;;;;;;20.80;72.00;98984.66;1695782;84;20135;-71
2022/08/20 00:37:59;;;;;;;;;;;;;;;20.75;72.03;98984.56;1696178;84;21391;-71
2022/08/20 00:40:29;;;;;;;;;;;;;;;20.76;72.14;98984.03;1695928;84;20095;-70
2022/08/20 00:42:57;;;;;;;;;;;;;;;20.72;72.21;98985.08;1694708;84;20428;-70
2022/08/20 00:45:26;;;;;;;;;;;;;;;20.68;72.33;98991.20;1696020;84;20197;-72
2022/08/20 00:47:54;;;;;;;;;;;;;;;20.63;72.46;98987.08;1694987;84;20131;-70
2022/08/20 00:50:24;;;;;;;;;;;;;;;20.55;72.63;98982.91;1694512;84;21447;-72
2022/08/20 00:52:50;;;;;;;;;;;;;;;20.50;72.80;98984.70;1695206;84;20156;-69
2022/08/20 00:55:18;;;;;;;;;;;;;;;20.42;72.97;98984.58;1693601;84;20147;-69
2022/08/20 00:57:47;;;;;;;;;;;;;;;20.33;73.24;98982.81;1682131;84;20213;-69
2022/08/20 01:00:16;;;;;;;;;;;;;;;20.27;73.49;98978.94;1690720;84;20091;-69
2022/08/20 01:02:43;;;;;;;;;;;;;;;20.22;73.72;98970.72;1696018;84;21035;-71
2022/08/20 01:05:10;;;;;;;;;;;;;;;20.15;73.92;98964.66;1693863;84;20103;-69
2022/08/20 01:07:36;;;;;;;;;;;;;;;20.10;74.14;98964.58;1695846;84;20075;-72
2022/08/20 01:10:06;;;;;;;;;;;;;;;20.06;74.37;98968.28;1695164;84;20810;-69
2022/08/20 01:12:33;;;;;;;;;;;;;;;20.08;74.54;98970.73;1695845;84;20095;-69
2022/08/20 01:15:00;;;;;;;;;;;;;;;20.12;74.64;98971.90;1695277;84;21236;-69
2022/08/20 01:17:31;;;;;;;;;;;;;;;20.16;74.68;98965.76;1695839;84;20139;-69
2022/08/20 01:20:00;;;;;;;;;;;;;;;20.19;74.63;98967.97;1695995;84;20092;-69
2022/08/20 01:25:48;;;;;;;;;;;;;;;20.21;74.28;98960.44;1695316;84;20487;-69
2022/08/20 01:28:17;;;;;;;;;;;;;;;20.14;74.25;98962.48;1695609;84;21180;-69
2022/08/20 01:30:44;;;;;;;;;;;;;;;20.07;74.41;98968.59;1667590;84;20111;-69
2022/08/20 01:33:10;;;;;;;;;;;;;;;20.01;74.54;98968.20;1694873;84;20115;-70
2022/08/20 01:35:37;;;;;;;;;;;;;;;19.96;74.66;98967.28;1695196;84;20128;-71
2022/08/20 01:38:04;;;;;;;;;;;;;;;19.88;74.84;98961.75;1695350;83;20257;-72
2022/08/20 01:40:53;;;;;;;;;;;;;;;19.82;75.04;98955.97;1695906;84;21120;-70
2022/08/20 01:43:19;;;;;;;;;;;;;;;19.78;75.26;98959.39;1677797;84;20434;-69
2022/08/20 01:45:45;;;;;;;;;;;;;;;19.74;75.47;98956.35;1696363;83;20455;-70
2022/08/20 01:48:13;;;;;;;;;;;;;;;19.69;75.62;98953.56;1693457;84;20111;-69
2022/08/20 01:50:39;;;;;;;;;;;;;;;19.66;75.79;98948.64;1695845;84;20091;-69
2022/08/20 01:53:12;;;;;;;;;;;;;;;19.64;75.95;98949.42;1695805;84;22091;-71
2022/08/20 01:55:39;;;;;;;;;;;;;;;19.60;76.09;98953.15;1694514;84;20150;-70
2022/08/20 01:58:05;;;;;;;;;;;;;;;19.58;76.23;98962.52;1683306;84;20099;-71
2022/08/20 02:00:33;;;;;;;;;;;;;;;19.56;76.34;98961.94;1695499;84;20123;-69
2022/08/20 02:02:59;;;;;;;;;;;;;;;19.53;76.53;98966.46;1696085;84;20087;-70
2022/08/20 02:05:26;;;;;;;;;;;;;;;19.55;76.63;98975.16;1695821;84;21792;-71
2022/08/20 02:07:52;;;;;;;;;;;;;;;19.53;76.60;98968.64;1695445;84;20112;-71
2022/08/20 02:10:18;;;;;;;;;;;;;;;19.51;76.55;98976.68;1694631;84;20152;-71
2022/08/20 02:12:45;;;;;;;;;;;;;;;19.47;76.65;98970.14;1695897;84;20139;-71
2022/08/20 02:15:11;;;;;;;;;;;;;;;19.44;76.64;98967.39;1695796;84;20090;-69
2022/08/20 02:17:38;;;;;;;;;;;;;;;19.40;76.69;98975.66;1695778;84;21174;-69
2022/08/20 02:20:11;;;;;;;;;;;;;;;19.37;76.86;98976.65;1694510;84;20163;-68
2022/08/20 02:22:52;;;;;;;;;;;;;;;19.32;77.04;98980.04;1695948;83;20421;-69
2022/08/20 02:25:21;;;;;;;;;;;;;;;19.31;77.12;98986.51;1694897;84;20087;-71
2022/08/20 02:27:47;;;;;;;;;;;;;;;19.29;77.18;98981.06;1695201;84;20087;-70
2022/08/20 02:30:17;;;;;;;;;;;;;;;19.28;77.26;98983.45;1694718;84;21753;-69
2022/08/20 02:32:44;;;;;;;;;;;;;;;19.27;77.28;98983.16;1695807;83;20560;-70
2022/08/20 02:35:12;;;;;;;;;;;;;;;19.28;77.29;98988.33;1695819;84;20159;-71
2022/08/20 02:37:40;;;;;;;;;;;;;;;19.31;77.37;98989.73;1695854;84;21279;-68
2022/08/20 02:40:08;;;;;;;;;;;;;;;19.34;77.29;98988.73;1695869;84;20131;-69
2022/08/20 02:42:35;;;;;;;;;;;;;;;19.35;77.16;98987.66;1694942;84;21156;-69
2022/08/20 02:45:01;;;;;;;;;;;;;;;19.35;77.06;98987.66;1696111;84;20103;-70
2022/08/20 02:47:27;;;;;;;;;;;;;;;19.33;77.02;98987.61;1696446;84;20095;-70
2022/08/20 02:49:54;;;;;;;;;;;;;;;19.31;77.00;98989.20;1696852;83;20087;-68
2022/08/20 02:52:20;;;;;;;;;;;;;;;19.30;76.98;98987.55;1694205;84;20087;-69
2022/08/20 02:54:49;;;;;;;;;;;;;;;19.29;76.99;98988.63;1695970;84;21310;-69
2022/08/20 02:57:19;;;;;;;;;;;;;;;19.30;77.02;98989.42;1695793;83;20099;-69
2022/08/20 02:59:44;;;;;;;;;;;;;;;19.29;76.98;98994.03;1694689;83;20218;-70
2022/08/20 03:02:10;;;;;;;;;;;;;;;19.28;76.96;99000.98;1694336;83;20087;-69
2022/08/20 03:04:37;;;;;;;;;;;;;;;19.25;77.06;98999.59;1695693;84;20127;-70
2022/08/20 03:07:04;;;;;;;;;;;;;;;19.24;77.05;98996.59;1695637;84;21726;-70
2022/08/20 03:09:31;;;;;;;;;;;;;;;19.22;77.08;98994.66;1695672;84;20161;-70
2022/08/20 03:11:58;;;;;;;;;;;;;;;19.18;77.20;98993.52;1694539;84;20147;-71
2022/08/20 03:14:24;;;;;;;;;;;;;;;19.19;77.35;98988.39;1695755;84;20231;-72
2022/08/20 03:16:50;;;;;;;;;;;;;;;19.20;77.36;98982.48;1695826;84;20091;-70
2022/08/20 03:19:17;;;;;;;;;;;;;;;19.19;77.37;98976.25;1695714;84;21145;-70
2022/08/20 03:21:43;;;;;;;;;;;;;;;19.23;77.36;98978.78;1695753;84;20083;-73
2022/08/20 03:24:10;;;;;;;;;;;;;;;19.28;77.43;98969.97;1694683;83;20461;-69
2022/08/20 03:26:37;;;;;;;;;;;;;;;19.40;77.42;98972.13;1695776;84;20444;-73
2022/08/20 03:29:03;;;;;;;;;;;;;;;19.49;77.14;98973.41;1695094;84;20106;-73
2022/08/20 03:31:30;;;;;;;;;;;;;;;19.61;76.95;98982.27;1695903;84;21160;-70
2022/08/20 03:33:56;;;;;;;;;;;;;;;19.75;76.62;98980.11;1682071;84;20448;-70
2022/08/20 03:36:23;;;;;;;;;;;;;;;19.89;76.24;98981.47;1695712;83;20449;-69
2022/08/20 03:38:49;;;;;;;;;;;;;;;20.07;75.65;98982.09;1695943;84;20428;-69
2022/08/20 03:41:16;;;;;;;;;;;;;;;20.25;74.99;98976.49;1695842;84;20087;-69
2022/08/20 03:43:42;;;;;;;;;;;;;;;20.43;74.25;98979.48;1694548;84;21123;-69
2022/08/20 03:46:09;;;;;;;;;;;;;;;20.58;73.32;98976.19;1695437;83;20083;-69
2022/08/20 03:48:35;;;;;;;;;;;;;;;20.70;72.73;98977.73;1695054;84;20134;-69
2022/08/20 03:51:01;;;;;;;;;;;;;;;20.87;72.58;98983.95;1695712;84;20110;-69
2022/08/20 03:53:33;;;;;;;;;;;;;;;21.10;71.60;98984.30;1708441;83;20426;-69
2022/08/20 03:55:59;;;;;;;;;;;;;;;21.30;70.68;98985.11;1719407;83;22105;-70
2022/08/20 03:58:27;;;;;;;;;;;;;;;21.50;69.81;98986.18;1682321;83;20174;-69
2022/08/20 04:00:54;;;;;;;;;;;;;;;21.70;69.07;98988.82;1695018;84;20083;-69
2022/08/20 04:03:21;;;;;;;;;;;;;;;21.87;68.18;98982.30;1695694;84;20095;-70
2022/08/20 04:05:48;;;;;;;;;;;;;;;22.01;67.51;98979.45;1693963;84;20119;-70
2022/08/20 04:08:17;;;;;;;;;;;;;;;22.16;66.80;98982.03;1695820;84;21156;-70
2022/08/20 04:10:46;;;;;;;;;;;;;;;22.32;66.30;98984.61;1695728;84;20126;-69
2022/08/20 04:13:12;;;;;;;;;;;;;;;22.51;65.53;98976.38;1695741;84;20103;-69
2022/08/20 04:15:39;;;;;;;;;;;;;;;22.70;64.93;98973.58;1695000;84;20788;-70
2022/08/20 04:18:06;;;;;;;;;;;;;;;22.92;64.14;98966.65;1695798;83;20167;-73
2022/08/20 04:20:33;;;;;;;;;;;;;;;23.10;63.34;98972.98;1695811;84;21170;-72
2022/08/20 04:23:00;;;;;;;;;;;;;;;23.22;62.66;98977.69;1694522;84;20087;-70
2022/08/20 04:25:28;;;;;;;;;;;;;;;23.29;62.32;98977.43;1685040;84;20091;-71
2022/08/20 04:27:54;;;;;;;;;;;;;;;23.43;61.89;98985.94;1676250;84;20154;-69
2022/08/20 04:30:24;;;;;;;;;;;;;;;23.57;61.46;98974.88;1695148;84;20413;-69
2022/08/20 04:32:48;;;;;;;;;;;;;;;23.74;61.37;98976.83;1695119;84;21695;-70
2022/08/20 04:35:16;;;;;;;;;;;;;;;23.98;60.57;98983.41;1695594;84;20131;-73
2022/08/20 04:37:47;;;;;;;;;;;;;;;24.22;59.86;98995.98;1695412;84;20182;-70
2022/08/20 04:43:00;;;;;;;;;;;;;;;24.71;58.65;98997.61;1695862;84;20444;-71
2022/08/20 04:45:27;;;;;;;;;;;;;;;24.99;57.72;99002.50;1694783;84;21812;-72
2022/08/20 04:47:53;;;;;;;;;;;;;;;25.25;57.28;98990.46;1695614;84;20445;-71
2022/08/20 04:50:20;;;;;;;;;;;;;;;25.60;56.68;98999.88;1695835;84;20441;-72
2022/08/20 04:52:47;;;;;;;;;;;;;;;26.00;56.07;99000.77;1695863;83;20441;-71
2022/08/20 04:55:15;;;;;;;;;;;;;;;26.45;54.31;99007.31;1695423;84;20116;-70
2022/08/20 04:57:42;;;;;;;;;;;;;;;26.77;53.06;98995.90;1694819;83;21165;-70
2022/08/20 05:00:12;;;;;;;;;;;;;;;27.00;52.28;98994.30;1695849;84;20119;-70
2022/08/20 05:02:40;;;;;;;;;;;;;;;27.18;51.79;98988.92;1695853;84;20454;-71
2022/08/20 05:05:07;;;;;;;;;;;;;;;27.43;51.16;98989.20;1694922;84;20640;-69
2022/08/20 05:07:40;;;;;;;;;;;;;;;27.69;50.62;98989.72;1693896;83;20175;-71
2022/08/20 05:10:08;;;;;;;;;;;;;;;27.95;49.88;98986.33;1696402;83;21885;-69
2022/08/20 05:12:36;;;;;;;;;;;;;;;28.25;49.16;98983.73;1692563;84;20413;-72
2022/08/20 05:15:03;;;;;;;;;;;;;;;28.49;48.86;98982.27;1695098;84;20186;-72
2022/08/20 05:17:30;;;;;;;;;;;;;;;28.82;48.03;98982.53;1694516;84;20615;-72
2022/08/20 05:19:58;;;;;;;;;;;;;;;29.15;47.38;98981.36;1698176;83;20460;-70
2022/08/20 05:22:26;;;;;;;;;;;;;;;29.50;46.31;98981.80;1695858;84;21184;-70
2022/08/20 05:24:55;;;;;;;;;;;;;;;29.72;45.41;98976.42;1692634;84;20154;-73
2022/08/20 05:27:25;;;;;;;;;;;;;;;29.90;44.59;98979.02;1694329;84;20099;-72
2022/08/20 05:29:52;;;;;;;;;;;;;;;29.94;43.79;98974.56;1695095;83;20804;-71
2022/08/20 05:32:19;;;;;;;;;;;;;;;29.84;44.00;98969.86;1694493;84;20103;-71
2022/08/20 05:34:45;;;;;;;;;;;;;;;29.84;43.52;98978.09;1696058;84;21152;-71
2022/08/20 05:37:11;;;;;;;;;;;;;;;29.73;43.34;98975.28;1694584;84;20107;-71
2022/08/20 05:39:37;;;;;;;;;;;;;;;29.60;43.69;98973.37;1695894;83;20440;-73
2022/08/20 05:42:04;;;;;;;;;;;;;;;29.83;43.80;98971.80;1695959;84;20186;-71
2022/08/20 05:44:30;;;;;;;;;;;;;;;30.35;43.38;98971.70;1717513;83;20101;-70
2022/08/20 05:46:57;;;;;;;;;;;;;;;30.79;41.76;98968.11;1719203;83;21167;-70
2022/08/20 05:49:23;;;;;;;;;;;;;;;30.87;41.40;98967.94;1716059;83;20129;-70
2022/08/20 05:51:52;;;;;;;;;;;;;;;30.95;40.79;98965.25;1727381;83;20137;-71
2022/08/20 05:54:19;;;;;;;;;;;;;;;30.94;40.69;98965.58;1718631;83;20455;-72
2022/08/20 05:56:45;;;;;;;;;;;;;;;31.12;40.63;98965.91;1723351;83;20193;-71
2022/08/20 05:59:12;;;;;;;;;;;;;;;31.43;39.93;98964.47;1695383;84;21147;-74
2022/08/20 06:01:39;;;;;;;;;;;;;;;31.76;39.46;98969.27;1695287;84;20242;-72
2022/08/20 06:04:25;;;;;;;;;;;;;;;32.06;37.98;98967.56;1676039;84;20468;-71
2022/08/20 06:06:53;;;;;;;;;;;;;;;32.02;37.33;98967.95;1695378;84;20139;-73
2022/08/20 06:09:21;;;;;;;;;;;;;;;31.87;37.62;98966.20;1695377;84;20103;-73
2022/08/20 06:11:47;;;;;;;;;;;;;;;31.98;37.72;98967.52;1686341;84;21152;-73
2022/08/20 06:14:15;;;;;;;;;;;;;;;32.12;37.85;98968.22;1695242;84;20187;-74
2022/08/20 06:16:43;;;;;;;;;;;;;;;32.44;37.03;98964.13;1695381;84;20449;-75
2022/08/20 06:19:09;;;;;;;;;;;;;;;32.81;36.44;98967.02;1693986;84;20148;-73
2022/08/20 06:21:36;;;;;;;;;;;;;;;32.99;35.56;98959.51;1685608;85;20147;-73
2022/08/20 06:24:03;;;;;;;;;;;;;;;33.03;35.29;98963.23;1685399;85;21168;-73
2022/08/20 06:26:30;;;;;;;;;;;;;;;33.12;34.81;98964.59;1685366;84;20088;-73
2022/08/20 06:28:59;;;;;;;;;;;;;;;33.11;34.93;98967.13;1685357;85;20150;-73
2022/08/20 06:31:26;;;;;;;;;;;;;;;33.32;34.55;98972.14;1685213;83;20175;-71
2022/08/20 06:33:52;;;;;;;;;;;;;;;33.50;34.62;98964.81;1685422;84;20202;-73
2022/08/20 06:36:18;;;;;;;;;;;;;;;33.84;34.53;98960.27;1685463;85;21212;-69
2022/08/20 06:38:45;;;;;;;;;;;;;;;34.27;33.04;98958.00;1686583;84;20111;-70
2022/08/20 06:41:11;;;;;;;;;;;;;;;34.36;32.76;98953.22;1703553;84;20113;-73
2022/08/20 06:43:38;;;;;;;;;;;;;;;34.31;32.61;98955.38;1702611;83;20156;-71
2022/08/20 06:46:05;;;;;;;;;;;;;;;34.44;31.84;98951.52;1699817;84;20181;-71
2022/08/20 06:48:32;;;;;;;;;;;;;;;34.10;32.10;98949.28;1692279;84;21853;-71
2022/08/20 06:50:58;;;;;;;;;;;;;;;33.87;32.87;98960.39;1712739;83;20459;-72
2022/08/20 06:53:25;;;;;;;;;;;;;;;33.68;32.92;98962.81;1713487;83;20470;-72
2022/08/20 06:55:53;;;;;;;;;;;;;;;33.50;33.33;98965.41;1713622;84;20214;-71
2022/08/20 06:58:21;;;;;;;;;;;;;;;33.71;33.38;98964.09;1691828;84;20088;-71
2022/08/20 07:00:47;;;;;;;;;;;;;;;33.81;33.25;98955.42;1685848;85;21148;-74
2022/08/20 07:03:14;;;;;;;;;;;;;;;34.29;33.08;98952.13;1685624;85;20116;-72
2022/08/20 07:05:42;;;;;;;;;;;;;;;34.55;32.56;98948.02;1687230;84;20472;-71
2022/08/20 07:08:13;;;;;;;;;;;;;;;34.95;32.34;98944.66;1702614;83;20501;-71
2022/08/20 07:10:41;;;;;;;;;;;;;;;35.44;31.61;98937.22;1685548;84;20172;-71
2022/08/20 07:13:10;;;;;;;;;;;;;;;35.68;30.11;98943.58;1681272;84;21142;-71
2022/08/20 07:15:36;;;;;;;;;;;;;;;35.88;29.63;98955.63;1712090;83;20146;-71
2022/08/20 07:18:03;;;;;;;;;;;;;;;35.59;29.98;98954.55;1699287;84;20150;-71
2022/08/20 07:20:31;;;;;;;;;;;;;;;35.51;30.48;98959.59;1686076;83;21012;-72
2022/08/20 07:22:58;;;;;;;;;;;;;;;35.46;30.38;98954.29;1702604;83;20141;-71
2022/08/20 07:25:25;;;;;;;;;;;;;;;35.22;30.70;98953.11;1696093;83;21102;-71
2022/08/20 07:27:51;;;;;;;;;;;;;;;35.30;30.58;98959.11;1718330;83;20204;-71
2022/08/20 07:33:06;;;;;;;;;;;;;;;35.89;29.88;98943.41;1699824;83;20142;-71
2022/08/20 07:35:32;;;;;;;;;;;;;;;36.03;29.89;98936.96;1726159;83;20116;-73
2022/08/20 07:37:58;;;;;;;;;;;;;;;36.38;29.55;98932.42;1706022;83;21117;-74
2022/08/20 07:40:27;;;;;;;;;;;;;;;36.62;29.27;98933.49;1727681;83;20431;-72
2022/08/20 07:42:56;;;;;;;;;;;;;;;36.83;28.49;98931.29;1707805;83;20142;-71
2022/08/20 07:45:22;;;;;;;;;;;;;;;37.23;28.03;98926.42;1713989;83;20113;-72
2022/08/20 07:47:48;;;;;;;;;;;;;;;37.51;27.36;98922.95;1711639;83;20439;-72
2022/08/20 07:50:18;;;;;;;;;;;;;;;37.76;27.12;98926.28;1702260;83;21942;-71
2022/08/20 07:52:45;;;;;;;;;;;;;;;37.95;27.16;98924.14;1712004;83;20095;-71
2022/08/20 07:55:14;;;;;;;;;;;;;;;38.25;26.93;98930.72;1728013;83;20077;-72
2022/08/20 07:57:42;;;;;;;;;;;;;;;38.38;26.64;98932.20;1700033;83;20439;-72
2022/08/20 08:00:11;;;;;;;;;;;;;;;38.01;26.65;98922.70;1690258;84;20095;-71
2022/08/20 08:02:38;;;;;;;;;;;;;;;37.95;27.02;98928.31;1705634;83;21164;-72
2022/08/20 08:05:05;;;;;;;;;;;;;;;38.11;26.84;98928.48;1707216;83;20162;-71
2022/08/20 08:07:33;;;;;;;;;;;;;;;38.05;26.42;98930.50;1710532;83;20105;-72
2022/08/20 08:10:00;;;;;;;;;;;;;;;37.57;27.21;98935.36;1705427;83;20091;-72
2022/08/20 08:12:30;;;;;;;;;;;;;;;38.08;26.85;98932.55;1703134;81;20160;-72
2022/08/20 08:14:56;;;;;;;;;;;;;;;38.45;26.37;98935.14;1723078;81;21074;-73
2022/08/20 08:17:23;;;;;;;;;;;;;;;38.37;27.01;98937.55;1719948;81;20164;-72
2022/08/20 08:19:49;;;;;;;;;;;;;;;38.12;26.29;98936.23;1730068;81;20144;-72
2022/08/20 08:22:16;;;;;;;;;;;;;;;37.37;27.62;98935.06;1708694;81;20095;-72
2022/08/20 08:24:43;;;;;;;;;;;;;;;37.84;27.22;98930.82;1701033;82;20165;-73
2022/08/20 08:27:10;;;;;;;;;;;;;;;38.10;26.56;98931.02;1701617;81;21451;-70
2022/08/20 08:29:36;;;;;;;;;;;;;;;38.11;26.38;98924.89;1726862;81;20144;-71
2022/08/20 08:32:03;;;;;;;;;;;;;;;38.53;26.30;98915.23;1695784;83;20440;-72
2022/08/20 08:34:34;;;;;;;;;;;;;;;39.20;25.37;98917.86;1723878;83;20481;-71
2022/08/20 08:37:01;;;;;;;;;;;;;;;39.54;24.80;98916.80;1711641;83;20157;-71
2022/08/20 08:39:30;;;;;;;;;;;;;;;39.83;24.43;98916.65;1728246;83;21919;-71
2022/08/20 08:41:57;;;;;;;;;;;;;;;39.80;24.39;98914.62;1728466;83;20088;-73
2022/08/20 08:44:27;;;;;;;;;;;;;;;40.12;24.24;98911.69;1728295;83;20163;-72
2022/08/20 08:46:57;;;;;;;;;;;;;;;40.43;23.98;98911.84;1706881;83;20115;-72
2022/08/20 08:49:26;;;;;;;;;;;;;;;41.05;23.10;98905.34;1717656;83;20081;-73
2022/08/20 08:51:59;;;;;;;;;;;;;;;41.45;22.66;98910.06;1717676;83;21142;-72
2022/08/20 08:54:27;;;;;;;;;;;;;;;41.77;22.17;98904.70;1703750;83;20319;-72
2022/08/20 08:56:53;;;;;;;;;;;;;;;41.65;22.47;98906.38;1701113;83;20252;-75
2022/08/20 08:59:20;;;;;;;;;;;;;;;41.91;21.82;98904.76;1695949;84;20119;-73
2022/08/20 09:01:49;;;;;;;;;;;;;;;42.38;21.28;98905.97;1696006;83;20099;-73
2022/08/20 09:04:16;;;;;;;;;;;;;;;42.27;20.87;98909.32;1695536;84;21300;-72
2022/08/20 09:06:43;;;;;;;;;;;;;;;42.12;21.56;98914.66;1683123;83;20248;-72
2022/08/20 09:09:19;;;;;;;;;;;;;;;41.65;21.30;98916.16;1695111;83;20156;-73
2022/08/20 09:11:52;;;;;;;;;;;;;;;41.03;21.83;98914.70;1696048;84;20416;-73
2022/08/20 09:14:19;;;;;;;;;;;;;;;40.78;22.28;98908.05;1706499;83;20098;-72
2022/08/20 09:16:46;;;;;;;;;;;;;;;39.63;23.28;98906.84;1683581;84;21226;-72
2022/08/20 09:19:12;;;;;;;;;;;;;;;38.09;24.96;98918.30;1695424;83;20425;-73
2022/08/20 09:21:39;;;;;;;;;;;;;;;36.89;26.56;98914.63;1681185;84;20456;-73
2022/08/20 09:24:05;;;;;;;;;;;;;;;36.27;27.91;98920.23;1695173;84;20866;-69
2022/08/20 09:26:31;;;;;;;;;;;;;;;35.94;28.76;98917.69;1692262;84;20091;-70
2022/08/20 09:28:58;;;;;;;;;;;;;;;35.74;29.52;98920.63;1693507;84;20925;-71
2022/08/20 09:31:25;;;;;;;;;;;;;;;35.62;29.61;98917.30;1667909;84;38377;-71
2022/08/20 09:33:51;;;;;;;;;;;;;;;35.39;29.82;98913.95;1684260;84;20115;-72
2022/08/20 09:36:17;;;;;;;;;;;;;;;35.13;30.43;98915.12;1711699;83;20095;-72
2022/08/20 09:38:43;;;;;;;;;;;;;;;34.95;31.37;98911.50;1695586;84;20154;-72
2022/08/20 09:41:10;;;;;;;;;;;;;;;34.68;31.54;98911.56;1695905;83;21796;-71
2022/08/20 09:43:37;;;;;;;;;;;;;;;34.36;31.96;98905.48;1695789;84;20202;-71
2022/08/20 09:46:03;;;;;;;;;;;;;;;33.86;32.20;98908.33;1695954;84;20087;-72
2022/08/20 09:48:29;;;;;;;;;;;;;;;33.44;32.57;98905.51;1708432;83;20492;-72
2022/08/20 09:50:56;;;;;;;;;;;;;;;33.34;32.47;98906.47;1695900;84;20130;-71
2022/08/20 09:53:22;;;;;;;;;;;;;;;33.38;33.24;98900.50;1695714;84;21716;-71
2022/08/20 09:55:50;;;;;;;;;;;;;;;33.46;32.88;98900.46;1695761;84;20436;-72
2022/08/20 09:58:20;;;;;;;;;;;;;;;33.38;32.36;98901.88;1676445;83;20111;-71
2022/08/20 10:00:46;;;;;;;;;;;;;;;33.08;33.04;98901.66;1695842;84;20563;-73
2022/08/20 10:03:13;;;;;;;;;;;;;;;32.85;34.00;98898.33;1695887;83;20159;-73
2022/08/20 10:05:39;;;;;;;;;;;;;;;32.76;34.26;98895.59;1695879;84;21145;-69
2022/08/20 10:08:07;;;;;;;;;;;;;;;32.73;34.09;98889.93;1695092;83;20167;-72
2022/08/20 10:10:33;;;;;;;;;;;;;;;32.64;34.12;98892.70;1695878;84;20103;-68
2022/08/20 10:13:01;;;;;;;;;;;;;;;32.63;34.26;98895.23;1694543;84;20108;-79
2022/08/20 10:15:28;;;;;;;;;;;;;;;32.62;33.67;98889.48;1694883;83;20099;-68
2022/08/20 10:17:56;;;;;;;;;;;;;;;32.45;33.75;98892.82;1692938;84;21135;-70
2022/08/20 10:20:22;;;;;;;;;;;;;;;32.14;34.37;98891.10;1692065;84;20115;-70
2022/08/20 10:22:49;;;;;;;;;;;;;;;31.84;35.01;98892.03;1698957;84;20103;-69
2022/08/20 10:25:16;;;;;;;;;;;;;;;31.56;35.53;98892.92;1695966;83;20166;-70
2022/08/20 10:27:43;;;;;;;;;;;;;;;31.46;36.14;98891.04;1698550;83;20103;-71
2022/08/20 10:30:10;;;;;;;;;;;;;;;31.37;36.40;98887.42;1698851;84;21123;-70
2022/08/20 10:32:36;;;;;;;;;;;;;;;31.41;36.59;98882.36;1698723;84;20185;-70
2022/08/20 10:35:03;;;;;;;;;;;;;;;31.48;35.83;98881.90;1698897;84;20075;-70
2022/08/20 10:37:29;;;;;;;;;;;;;;;31.60;36.14;98887.59;1698846;84;20111;-70
2022/08/20 10:39:56;;;;;;;;;;;;;;;31.69;36.04;98885.65;1698940;84;20166;-70
2022/08/20 10:42:22;;;;;;;;;;;;;;;31.73;35.33;98881.11;1698936;84;21160;-70
2022/08/20 10:44:48;;;;;;;;;;;;;;;31.73;35.57;98879.73;1698923;84;20099;-71
2022/08/20 10:47:18;;;;;;;;;;;;;;;31.78;35.65;98876.85;1698907;84;20144;-70
2022/08/20 10:49:45;;;;;;;;;;;;;;;31.94;35.55;98870.30;1698855;84;20153;-70
2022/08/20 10:52:11;;;;;;;;;;;;;;;31.95;35.28;98872.71;1698820;84;20095;-71
2022/08/20 10:54:42;;;;;;;;;;;;;;;31.95;35.19;98865.02;1698879;84;21271;-70
2022/08/20 10:57:06;;;;;;;;;;;;;;;31.83;35.30;98862.94;1694866;83;20120;-70
2022/08/20 10:59:35;;;;;;;;;;;;;;;31.82;35.07;98857.75;1658987;84;20126;-70
2022/08/20 11:02:01;;;;;;;;;;;;;;;31.94;35.12;98856.55;1704960;81;20477;-71
2022/08/20 11:04:28;;;;;;;;;;;;;;;32.03;35.86;98860.11;1701464;83;20127;-70
2022/08/20 11:06:54;;;;;;;;;;;;;;;32.16;35.96;98862.69;1693439;84;21562;-71
2022/08/20 11:09:21;;;;;;;;;;;;;;;32.23;35.48;98865.75;1693604;84;20103;-71
2022/08/20 11:11:47;;;;;;;;;;;;;;;32.11;35.78;98864.80;1693383;84;20433;-71
2022/08/20 11:14:14;;;;;;;;;;;;;;;31.89;36.17;98858.09;1693164;84;20810;-71
2022/08/20 11:16:40;;;;;;;;;;;;;;;31.78;36.79;98859.54;1681023;84;20166;-70
2022/08/20 11:19:07;;;;;;;;;;;;;;;31.75;36.81;98857.69;1701401;83;21109;-71
2022/08/20 11:21:33;;;;;;;;;;;;;;;31.68;37.28;98854.59;1693849;83;20087;-71
2022/08/20 11:23:59;;;;;;;;;;;;;;;31.53;36.84;98850.95;1686152;85;20099;-71
2022/08/20 11:26:26;;;;;;;;;;;;;;;31.38;36.64;98848.64;1686194;85;20135;-71
2022/08/20 11:28:52;;;;;;;;;;;;;;;31.20;36.68;98844.81;1686168;84;20124;-71
2022/08/20 11:31:18;;;;;;;;;;;;;;;31.02;37.05;98845.34;1686205;84;21524;-71
2022/08/20 11:33:44;;;;;;;;;;;;;;;30.92;37.17;98842.30;1686167;85;20092;-71
2022/08/20 11:36:10;;;;;;;;;;;;;;;30.87;37.38;98843.00;1686202;85;20151;-71
2022/08/20 11:38:36;;;;;;;;;;;;;;;30.88;37.25;98841.30;1686096;85;20120;-71
2022/08/20 11:41:03;;;;;;;;;;;;;;;31.00;37.25;98844.85;1686129;85;20457;-71
2022/08/20 11:43:30;;;;;;;;;;;;;;;31.04;36.95;98843.08;1686208;85;21198;-70
2022/08/20 11:45:56;;;;;;;;;;;;;;;31.15;36.88;98838.35;1686097;85;20200;-71
2022/08/20 11:48:22;;;;;;;;;;;;;;;31.34;36.77;98835.28;1660922;85;20107;-70
2022/08/20 11:50:48;;;;;;;;;;;;;;;31.47;35.41;98830.23;1657114;86;20102;-70
2022/08/20 11:53:15;;;;;;;;;;;;;;;31.51;35.24;98838.10;1657032;86;20105;-70
2022/08/20 11:55:42;;;;;;;;;;;;;;;31.49;35.70;98833.50;1657066;86;21797;-70
2022/08/20 11:58:08;;;;;;;;;;;;;;;31.50;36.07;98826.04;1639472;85;20151;-70
2022/08/20 12:00:35;;;;;;;;;;;;;;;31.53;35.81;98827.59;1655946;85;20134;-70
2022/08/20 12:03:04;;;;;;;;;;;;;;;31.44;35.76;98826.76;1669095;85;20135;-72
2022/08/20 12:05:30;;;;;;;;;;;;;;;31.28;36.02;98828.34;1657071;86;20128;-71
2022/08/20 12:07:56;;;;;;;;;;;;;;;31.10;36.59;98826.70;1657087;86;21084;-71
2022/08/20 12:10:25;;;;;;;;;;;;;;;30.90;36.64;98826.69;1656858;86;20090;-71
2022/08/20 12:12:51;;;;;;;;;;;;;;;30.75;37.17;98815.33;1686701;84;20084;-71
2022/08/20 12:15:18;;;;;;;;;;;;;;;30.76;37.38;98823.82;1686541;84;20605;-72
2022/08/20 12:17:44;;;;;;;;;;;;;;;30.74;37.36;98819.22;1682156;84;20113;-72
2022/08/20 12:20:11;;;;;;;;;;;;;;;30.76;37.44;98813.66;1686586;84;21186;-69
2022/08/20 12:22:38;;;;;;;;;;;;;;;30.72;37.81;98816.77;1687057;83;20125;-70
2022/08/20 12:25:06;;;;;;;;;;;;;;;30.54;38.36;98818.64;1687407;84;20425;-70
2022/08/20 12:27:33;;;;;;;;;;;;;;;30.36;38.57;98810.09;1687183;84;20109;-70
2022/08/20 12:30:02;;;;;;;;;;;;;;;30.22;38.90;98809.33;1687444;83;20136;-69
2022/08/20 12:32:30;;;;;;;;;;;;;;;30.11;38.90;98809.36;1686354;83;21174;-70
2022/08/20 12:34:56;;;;;;;;;;;;;;;30.01;39.41;98819.19;1687395;84;20123;-70
2022/08/20 12:37:25;;;;;;;;;;;;;;;29.90;39.74;98810.41;1687619;83;20096;-70
2022/08/20 12:39:53;;;;;;;;;;;;;;;29.82;40.60;98815.86;1683483;83;20649;-71
2022/08/20 12:42:20;;;;;;;;;;;;;;;29.77;40.67;98811.28;1684571;84;20120;-69
2022/08/20 12:44:47;;;;;;;;;;;;;;;29.73;40.01;98809.45;1687459;83;21834;-69
2022/08/20 12:47:19;;;;;;;;;;;;;;;29.79;39.46;98819.21;1684497;83;20462;-69
2022/08/20 12:49:48;;;;;;;;;;;;;;;29.79;39.30;98812.36;1684980;83;20550;-70
2022/08/20 12:52:15;;;;;;;;;;;;;;;29.82;39.61;98812.55;1687197;83;20147;-69
2022/08/20 12:54:41;;;;;;;;;;;;;;;29.92;39.15;98804.08;1687185;84;20116;-72
2022/08/20 12:57:13;;;;;;;;;;;;;;;30.03;39.13;98807.38;1680926;84;21632;-70